Fishing Creek, Maryland
Current Conditions -  °F | °C
As of 2:52 PM on Friday 28 Nov 2014 (Local Time) from KNHK Reporting Station
Scattered Clouds Scattered Clouds  
Wind Chill:   Ceiling: Unl
Heat Index:   Visibility: 10mi
Dew Point: -7°   Wind: 13mph
Humidity: 46%   Direction: 320°NW
Pressure: 30.26"   Gusts: NA
Location:  38.31°N, 76.23°W
Report Text: KNHK 281952Z 32011KT 10SM SCT050 SCT250 04/M07 A3026 RMK AO2 SLP248 T00391067 $
Loading
Personal Weather Stations






























Interactive Weather Map New forecast layout! Learn more

10-Day Weather Forecast

Advertisements
Track Severe Weather on mobile